PWSweather.com
Personal Weather Stations
Station Observations
KJ4AJP
Beautiful Downtown Gardner, Martin, TN 38237

Beautiful Downtown GardnerMartin, TN 38237

Lat: 36.358, Lon: -88.8994

Elevation: 384.3

Station Type: TP1080WC

http://weather.mambm.com/

High Low Average
Temperature 59.0°F15.0°C 42.3°F5.7°C 49.1°F9.5°C
Dew Point 58.7°F14.8°C 41.3°F5.2°C 45.4°F7.4°C
Winds 9.2 mph 14.8 kmh Calm Calm 2.0 mph SW3.2 kmh SW
Wind Gusts 24.4 mph39.3 kmh -- 5.0 mph8.0 kmh
Humidity 99% 71% 87%
Pressure 30.16 in1021.3 mb 29.82 in1009.8 mb -
Precipitation 0.00 in0.0 mm - -
Hour Temp Dew Point Humidity Winds Wind Gusts Pressure Precip Precip Rate Daily Precip Total
12:00 AM 58.1°F14.5°C 57.8°F14.3°C 99% 5.4 mph SW8.7 kmh SW 13.6 mph21.9 kmh 29.82 in1009.8 mb 0.00 in0.0 mm 0.00 in0.0 mm 0.00 in0.0 mm
12:15 AM 58.3°F14.6°C 58.0°F14.4°C 99% 3.1 mph WSW5.0 kmh WSW 11.4 mph18.3 kmh 29.82 in1009.8 mb 0.00 in0.0 mm 0.00 in0.0 mm 0.00 in0.0 mm
12:30 AM 58.3°F14.6°C 58.0°F14.4°C 99% 6.0 mph SW9.7 kmh SW 13.0 mph20.9 kmh 29.83 in1010.2 mb 0.00 in0.0 mm 0.00 in0.0 mm 0.00 in0.0 mm
12:45 AM 58.6°F14.8°C 58.4°F14.7°C 99% 6.9 mph SW11.1 kmh SW 13.6 mph21.9 kmh 29.85 in1010.8 mb 0.00 in0.0 mm 0.00 in0.0 mm 0.00 in0.0 mm
01:00 AM 59.0°F15.0°C 58.7°F14.8°C 99% 6.0 mph WSW9.7 kmh WSW 20.6 mph33.2 kmh 29.86 in1011.2 mb 0.00 in0.0 mm 0.00 in0.0 mm 0.00 in0.0 mm
01:15 AM 58.6°F14.8°C 58.4°F14.7°C 99% 9.2 mph WSW14.8 kmh WSW 18.3 mph29.5 kmh 29.87 in1011.5 mb 0.00 in0.0 mm 0.00 in0.0 mm 0.00 in0.0 mm
01:30 AM 58.1°F14.5°C 57.0°F13.9°C 96% 6.9 mph WNW11.1 kmh WNW 19.0 mph30.6 kmh 29.89 in1012.2 mb 0.00 in0.0 mm 0.00 in0.0 mm 0.00 in0.0 mm
01:45 AM 56.7°F13.7°C 54.4°F12.4°C 92% 6.0 mph WNW9.7 kmh WNW 24.4 mph39.3 kmh 29.91 in1012.9 mb 0.00 in0.0 mm 0.00 in0.0 mm 0.00 in0.0 mm
02:00 AM 55.4°F13.0°C 53.4°F11.9°C 93% 2.2 mph WNW3.5 kmh WNW 14.5 mph23.3 kmh 29.90 in1012.5 mb 0.00 in0.0 mm 0.00 in0.0 mm 0.00 in0.0 mm
02:15 AM 54.3°F12.4°C 52.9°F11.6°C 95% 5.4 mph WNW8.7 kmh WNW 9.8 mph15.8 kmh 29.90 in1012.5 mb 0.00 in0.0 mm 0.00 in0.0 mm 0.00 in0.0 mm
02:30 AM 53.2°F11.8°C 51.3°F10.7°C 93% 5.4 mph NW8.7 kmh NW 12.1 mph19.5 kmh 29.93 in1013.5 mb 0.00 in0.0 mm 0.00 in0.0 mm 0.00 in0.0 mm
02:45 AM 52.3°F11.3°C 50.1°F10.1°C 92% 3.8 mph WNW6.1 kmh WNW 13.0 mph20.9 kmh 29.94 in1013.9 mb 0.00 in0.0 mm 0.00 in0.0 mm 0.00 in0.0 mm
03:00 AM 51.6°F10.9°C 49.7°F9.8°C 93% 4.5 mph WNW7.2 kmh WNW 7.6 mph12.2 kmh 29.94 in1013.9 mb 0.00 in0.0 mm 0.00 in0.0 mm 0.00 in0.0 mm
03:15 AM 51.1°F10.6°C 49.1°F9.5°C 93% 3.8 mph WNW6.1 kmh WNW 13.0 mph20.9 kmh 29.95 in1014.2 mb 0.00 in0.0 mm 0.00 in0.0 mm 0.00 in0.0 mm
03:30 AM 50.4°F10.2°C 48.4°F9.1°C 93% 3.1 mph NW5.0 kmh NW 11.4 mph18.3 kmh 29.96 in1014.6 mb 0.00 in0.0 mm 0.00 in0.0 mm 0.00 in0.0 mm
03:45 AM 49.5°F9.7°C 47.5°F8.6°C 93% 5.4 mph NW8.7 kmh NW 11.4 mph18.3 kmh 29.97 in1014.9 mb 0.00 in0.0 mm 0.00 in0.0 mm 0.00 in0.0 mm
04:00 AM 48.6°F9.2°C 46.6°F8.1°C 93% 1.6 mph NW2.6 kmh NW 9.8 mph15.8 kmh 29.98 in1015.2 mb 0.00 in0.0 mm 0.00 in0.0 mm 0.00 in0.0 mm
04:15 AM 48.2°F9.0°C 46.3°F7.9°C 93% 2.2 mph NW3.5 kmh NW 11.4 mph18.3 kmh 29.97 in1014.9 mb 0.00 in0.0 mm 0.00 in0.0 mm 0.00 in0.0 mm
04:30 AM 47.7°F8.7°C 45.7°F7.6°C 93% 1.6 mph NW2.6 kmh NW 8.3 mph13.4 kmh 29.99 in1015.6 mb 0.00 in0.0 mm 0.00 in0.0 mm 0.00 in0.0 mm
04:45 AM 47.3°F8.5°C 45.4°F7.4°C 93% 0.7 mph NW1.1 kmh NW 9.2 mph14.8 kmh 30.00 in1015.9 mb 0.00 in0.0 mm 0.00 in0.0 mm 0.00 in0.0 mm
05:00 AM 46.9°F8.3°C 45.3°F7.4°C 94% 1.6 mph NW2.6 kmh NW 6.0 mph9.7 kmh 30.00 in1015.9 mb 0.00 in0.0 mm 0.00 in0.0 mm 0.00 in0.0 mm
05:15 AM 46.6°F8.1°C 44.9°F7.2°C 94% 1.6 mph NW2.6 kmh NW 3.8 mph6.1 kmh 30.01 in1016.3 mb 0.00 in0.0 mm 0.00 in0.0 mm 0.00 in0.0 mm
05:30 AM 46.2°F7.9°C 44.6°F7.0°C 94% 0.7 mph NW1.1 kmh NW 7.6 mph12.2 kmh 30.02 in1016.6 mb 0.00 in0.0 mm 0.00 in0.0 mm 0.00 in0.0 mm
05:45 AM 45.9°F7.7°C 44.2°F6.8°C 94% 1.6 mph NW2.6 kmh NW 5.4 mph8.7 kmh 30.03 in1016.9 mb 0.00 in0.0 mm 0.00 in0.0 mm 0.00 in0.0 mm
06:00 AM 45.5°F7.5°C 43.9°F6.6°C 94% 0.7 mph NW1.1 kmh NW 6.9 mph11.1 kmh 30.05 in1017.6 mb 0.00 in0.0 mm 0.00 in0.0 mm 0.00 in0.0 mm
06:15 AM 45.3°F7.4°C 43.7°F6.5°C 94% 0.7 mph NW1.1 kmh NW 5.4 mph8.7 kmh 30.07 in1018.3 mb 0.00 in0.0 mm 0.00 in0.0 mm 0.00 in0.0 mm
06:30 AM 45.1°F7.3°C 43.8°F6.6°C 95% 0.7 mph W1.1 kmh W 3.1 mph5.0 kmh 30.07 in1018.3 mb 0.00 in0.0 mm 0.00 in0.0 mm 0.00 in0.0 mm
06:45 AM 44.8°F7.1°C 43.4°F6.3°C 95% 0.7 mph WNW1.1 kmh WNW 3.8 mph6.1 kmh 30.07 in1018.3 mb 0.00 in0.0 mm 0.00 in0.0 mm 0.00 in0.0 mm
07:00 AM 44.4°F6.9°C 43.1°F6.2°C 95% Calm Calm 2.2 mph3.5 kmh 30.07 in1018.3 mb 0.00 in0.0 mm 0.00 in0.0 mm 0.00 in0.0 mm
07:15 AM 44.4°F6.9°C 43.1°F6.2°C 95% Calm Calm 3.8 mph6.1 kmh 30.07 in1018.3 mb 0.00 in0.0 mm 0.00 in0.0 mm 0.00 in0.0 mm
07:30 AM 44.4°F6.9°C 43.1°F6.2°C 95% Calm Calm 3.8 mph6.1 kmh 30.08 in1018.6 mb 0.00 in0.0 mm 0.00 in0.0 mm 0.00 in0.0 mm
07:45 AM 44.4°F6.9°C 43.1°F6.2°C 95% 0.7 mph NW1.1 kmh NW 3.8 mph6.1 kmh 30.09 in1019.0 mb 0.00 in0.0 mm 0.00 in0.0 mm 0.00 in0.0 mm
08:00 AM 44.8°F7.1°C 43.4°F6.3°C 95% 0.7 mph NW1.1 kmh NW 3.1 mph5.0 kmh 30.08 in1018.6 mb 0.00 in0.0 mm 0.00 in0.0 mm 0.00 in0.0 mm
08:15 AM 45.1°F7.3°C 43.5°F6.4°C 94% Calm Calm 3.1 mph5.0 kmh 30.09 in1019.0 mb 0.00 in0.0 mm 0.00 in0.0 mm 0.00 in0.0 mm
08:30 AM 45.7°F7.6°C 43.8°F6.6°C 93% 0.7 mph NW1.1 kmh NW 4.5 mph7.2 kmh 30.10 in1019.3 mb 0.00 in0.0 mm 0.00 in0.0 mm 0.00 in0.0 mm
08:45 AM 46.4°F8.0°C 43.9°F6.6°C 91% 0.7 mph NW1.1 kmh NW 3.1 mph5.0 kmh 30.11 in1019.6 mb 0.00 in0.0 mm 0.00 in0.0 mm 0.00 in0.0 mm
09:00 AM 46.4°F8.0°C 43.6°F6.4°C 90% 0.7 mph NW1.1 kmh NW 3.8 mph6.1 kmh 30.12 in1020.0 mb 0.00 in0.0 mm 0.00 in0.0 mm 0.00 in0.0 mm
09:15 AM 46.4°F8.0°C 43.6°F6.4°C 90% 0.7 mph NW1.1 kmh NW 5.4 mph8.7 kmh 30.11 in1019.6 mb 0.00 in0.0 mm 0.00 in0.0 mm 0.00 in0.0 mm
09:30 AM 46.6°F8.1°C 43.5°F6.4°C 89% 1.6 mph NNW2.6 kmh NNW 4.5 mph7.2 kmh 30.11 in1019.6 mb 0.00 in0.0 mm 0.00 in0.0 mm 0.00 in0.0 mm
09:45 AM 46.9°F8.3°C 43.9°F6.6°C 89% 2.2 mph NNW3.5 kmh NNW 4.5 mph7.2 kmh 30.12 in1020.0 mb 0.00 in0.0 mm 0.00 in0.0 mm 0.00 in0.0 mm
10:00 AM 48.0°F8.9°C 44.6°F7.0°C 88% 1.6 mph NNW2.6 kmh NNW 6.0 mph9.7 kmh 30.12 in1020.0 mb 0.00 in0.0 mm 0.00 in0.0 mm 0.00 in0.0 mm
10:15 AM 49.1°F9.5°C 44.8°F7.1°C 85% 3.1 mph N5.0 kmh N 9.2 mph14.8 kmh 30.12 in1020.0 mb 0.00 in0.0 mm 0.00 in0.0 mm 0.00 in0.0 mm
10:30 AM 50.0°F10.0°C 45.4°F7.4°C 84% Calm Calm 7.6 mph12.2 kmh 30.12 in1020.0 mb 0.00 in0.0 mm 0.00 in0.0 mm 0.00 in0.0 mm
10:45 AM 50.4°F10.2°C 45.4°F7.4°C 83% 3.1 mph N5.0 kmh N 4.5 mph7.2 kmh 30.12 in1020.0 mb 0.00 in0.0 mm 0.00 in0.0 mm 0.00 in0.0 mm
11:00 AM 51.3°F10.7°C 45.3°F7.4°C 80% 3.1 mph N5.0 kmh N 6.9 mph11.1 kmh 30.12 in1020.0 mb 0.00 in0.0 mm 0.00 in0.0 mm 0.00 in0.0 mm
11:15 AM 51.3°F10.7°C 44.0°F6.7°C 76% 0.7 mph N1.1 kmh N 5.4 mph8.7 kmh 30.11 in1019.6 mb 0.00 in0.0 mm 0.00 in0.0 mm 0.00 in0.0 mm
11:30 AM 51.4°F10.8°C 44.1°F6.7°C 76% 1.6 mph NNE2.6 kmh NNE 5.4 mph8.7 kmh 30.11 in1019.6 mb 0.00 in0.0 mm 0.00 in0.0 mm 0.00 in0.0 mm
11:45 AM 51.6°F10.9°C 44.7°F7.1°C 77% 2.2 mph N3.5 kmh N 3.8 mph6.1 kmh 30.11 in1019.6 mb 0.00 in0.0 mm 0.00 in0.0 mm 0.00 in0.0 mm
12:00 PM 53.1°F11.7°C 45.4°F7.4°C 75% 2.2 mph NNW3.5 kmh NNW 6.0 mph9.7 kmh 30.10 in1019.3 mb 0.00 in0.0 mm 0.00 in0.0 mm 0.00 in0.0 mm
12:15 PM 52.9°F11.6°C 44.1°F6.7°C 72% 0.7 mph NNW1.1 kmh NNW 4.5 mph7.2 kmh 30.09 in1019.0 mb 0.00 in0.0 mm 0.00 in0.0 mm 0.00 in0.0 mm
12:30 PM 52.5°F11.4°C 43.8°F6.6°C 72% 0.7 mph NNW1.1 kmh NNW 3.8 mph6.1 kmh 30.09 in1019.0 mb 0.00 in0.0 mm 0.00 in0.0 mm 0.00 in0.0 mm
12:45 PM 52.9°F11.6°C 44.1°F6.7°C 72% 2.2 mph NNW3.5 kmh NNW 5.4 mph8.7 kmh 30.09 in1019.0 mb 0.00 in0.0 mm 0.00 in0.0 mm 0.00 in0.0 mm
01:00 PM 52.7°F11.5°C 43.6°F6.4°C 71% 2.2 mph NW3.5 kmh NW 4.5 mph7.2 kmh 30.09 in1019.0 mb 0.00 in0.0 mm 0.00 in0.0 mm 0.00 in0.0 mm
01:15 PM 52.5°F11.4°C 43.4°F6.3°C 71% 0.7 mph NW1.1 kmh NW 3.8 mph6.1 kmh 30.08 in1018.6 mb 0.00 in0.0 mm 0.00 in0.0 mm 0.00 in0.0 mm
01:30 PM 52.3°F11.3°C 43.2°F6.2°C 71% 2.2 mph NNW3.5 kmh NNW 5.4 mph8.7 kmh 30.08 in1018.6 mb 0.00 in0.0 mm 0.00 in0.0 mm 0.00 in0.0 mm
01:45 PM 52.2°F11.2°C 43.4°F6.3°C 72% 2.2 mph WNW3.5 kmh WNW 4.5 mph7.2 kmh 30.07 in1018.3 mb 0.00 in0.0 mm 0.00 in0.0 mm 0.00 in0.0 mm
02:00 PM 52.5°F11.4°C 43.8°F6.6°C 72% 0.7 mph NW1.1 kmh NW 3.1 mph5.0 kmh 30.08 in1018.6 mb 0.00 in0.0 mm 0.00 in0.0 mm 0.00 in0.0 mm
02:15 PM 52.9°F11.6°C 44.5°F6.9°C 73% 0.7 mph W1.1 kmh W 4.5 mph7.2 kmh 30.08 in1018.6 mb 0.00 in0.0 mm 0.00 in0.0 mm 0.00 in0.0 mm
02:30 PM 53.4°F11.9°C 44.6°F7.0°C 72% 1.6 mph NNE2.6 kmh NNE 3.1 mph5.0 kmh 30.09 in1019.0 mb 0.00 in0.0 mm 0.00 in0.0 mm 0.00 in0.0 mm
02:45 PM 52.9°F11.6°C 44.1°F6.7°C 72% 0.7 mph S1.1 kmh S 5.4 mph8.7 kmh 30.10 in1019.3 mb 0.00 in0.0 mm 0.00 in0.0 mm 0.00 in0.0 mm
03:00 PM 52.3°F11.3°C 44.3°F6.8°C 74% 1.6 mph SW2.6 kmh SW 4.5 mph7.2 kmh 30.11 in1019.6 mb 0.00 in0.0 mm 0.00 in0.0 mm 0.00 in0.0 mm
03:15 PM 52.0°F11.1°C 44.3°F6.8°C 75% 1.6 mph SW2.6 kmh SW 3.1 mph5.0 kmh 30.10 in1019.3 mb 0.00 in0.0 mm 0.00 in0.0 mm 0.00 in0.0 mm
03:30 PM 52.0°F11.1°C 44.3°F6.8°C 75% Calm Calm 2.2 mph3.5 kmh 30.09 in1019.0 mb 0.00 in0.0 mm 0.00 in0.0 mm 0.00 in0.0 mm
03:45 PM 51.8°F11.0°C 43.8°F6.6°C 74% 0.7 mph NW1.1 kmh NW 2.2 mph3.5 kmh 30.10 in1019.3 mb 0.00 in0.0 mm 0.00 in0.0 mm 0.00 in0.0 mm
04:00 PM 51.8°F11.0°C 44.1°F6.7°C 75% Calm Calm 2.2 mph3.5 kmh 30.09 in1019.0 mb 0.00 in0.0 mm 0.00 in0.0 mm 0.00 in0.0 mm
04:15 PM 51.4°F10.8°C 43.4°F6.3°C 74% Calm Calm 1.6 mph2.6 kmh 30.09 in1019.0 mb 0.00 in0.0 mm 0.00 in0.0 mm 0.00 in0.0 mm
04:30 PM 51.1°F10.6°C 42.7°F5.9°C 73% 0.7 mph NE1.1 kmh NE 3.1 mph5.0 kmh 30.07 in1018.3 mb 0.00 in0.0 mm 0.00 in0.0 mm 0.00 in0.0 mm
04:45 PM 50.9°F10.5°C 43.3°F6.3°C 75% 1.6 mph ENE2.6 kmh ENE 3.8 mph6.1 kmh 30.08 in1018.6 mb 0.00 in0.0 mm 0.00 in0.0 mm 0.00 in0.0 mm
05:00 PM 50.5°F10.3°C 43.3°F6.3°C 76% Calm Calm 2.2 mph3.5 kmh 30.09 in1019.0 mb 0.00 in0.0 mm 0.00 in0.0 mm 0.00 in0.0 mm
05:15 PM 50.2°F10.1°C 43.9°F6.6°C 79% 0.7 mph SSE1.1 kmh SSE 1.6 mph2.6 kmh 30.08 in1018.6 mb 0.00 in0.0 mm 0.00 in0.0 mm 0.00 in0.0 mm
05:30 PM 49.6°F9.8°C 44.1°F6.7°C 81% Calm Calm 0.7 mph1.1 kmh 30.08 in1018.6 mb 0.00 in0.0 mm 0.00 in0.0 mm 0.00 in0.0 mm
05:45 PM 48.9°F9.4°C 43.7°F6.5°C 82% Calm Calm 1.6 mph2.6 kmh 30.07 in1018.3 mb 0.00 in0.0 mm 0.00 in0.0 mm 0.00 in0.0 mm
06:00 PM 48.6°F9.2°C 43.6°F6.4°C 83% 0.7 mph N1.1 kmh N 1.6 mph2.6 kmh 30.08 in1018.6 mb 0.00 in0.0 mm 0.00 in0.0 mm 0.00 in0.0 mm
06:15 PM 48.0°F8.9°C 43.7°F6.5°C 85% Calm Calm 1.6 mph2.6 kmh 30.09 in1019.0 mb 0.00 in0.0 mm 0.00 in0.0 mm 0.00 in0.0 mm
06:30 PM 47.5°F8.6°C 43.8°F6.6°C 87% Calm Calm 1.6 mph2.6 kmh 30.10 in1019.3 mb 0.00 in0.0 mm 0.00 in0.0 mm 0.00 in0.0 mm
06:45 PM 46.9°F8.3°C 43.3°F6.3°C 87% Calm Calm 0.7 mph1.1 kmh 30.11 in1019.6 mb 0.00 in0.0 mm 0.00 in0.0 mm 0.00 in0.0 mm
07:00 PM 46.4°F8.0°C 43.0°F6.1°C 88% Calm Calm -- 30.11 in1019.6 mb 0.00 in0.0 mm 0.00 in0.0 mm 0.00 in0.0 mm
07:15 PM 46.2°F7.9°C 43.5°F6.4°C 90% Calm Calm -- 30.11 in1019.6 mb 0.00 in0.0 mm 0.00 in0.0 mm 0.00 in0.0 mm
07:30 PM 45.9°F7.7°C 43.4°F6.3°C 91% 0.7 mph N1.1 kmh N 2.2 mph3.5 kmh 30.11 in1019.6 mb 0.00 in0.0 mm 0.00 in0.0 mm 0.00 in0.0 mm
07:45 PM 45.7°F7.6°C 43.5°F6.4°C 92% 0.7 mph N1.1 kmh N 3.1 mph5.0 kmh 30.10 in1019.3 mb 0.00 in0.0 mm 0.00 in0.0 mm 0.00 in0.0 mm
08:00 PM 45.7°F7.6°C 43.8°F6.6°C 93% 0.7 mph N1.1 kmh N 3.8 mph6.1 kmh 30.11 in1019.6 mb 0.00 in0.0 mm 0.00 in0.0 mm 0.00 in0.0 mm
08:15 PM 45.5°F7.5°C 43.6°F6.4°C 93% Calm Calm 2.2 mph3.5 kmh 30.11 in1019.6 mb 0.00 in0.0 mm 0.00 in0.0 mm 0.00 in0.0 mm
08:30 PM 45.3°F7.4°C 43.4°F6.3°C 93% 0.7 mph N1.1 kmh N 3.1 mph5.0 kmh 30.11 in1019.6 mb 0.00 in0.0 mm 0.00 in0.0 mm 0.00 in0.0 mm
08:45 PM 45.1°F7.3°C 43.0°F6.1°C 92% Calm Calm 3.1 mph5.0 kmh 30.11 in1019.6 mb 0.00 in0.0 mm 0.00 in0.0 mm 0.00 in0.0 mm
09:00 PM 45.0°F7.2°C 43.1°F6.2°C 93% 0.7 mph N1.1 kmh N 1.6 mph2.6 kmh 30.11 in1019.6 mb 0.00 in0.0 mm 0.00 in0.0 mm 0.00 in0.0 mm
09:15 PM 44.6°F7.0°C 42.7°F5.9°C 93% Calm Calm 1.6 mph2.6 kmh 30.12 in1020.0 mb 0.00 in0.0 mm 0.00 in0.0 mm 0.00 in0.0 mm
09:30 PM 44.6°F7.0°C 42.7°F5.9°C 93% 0.7 mph N1.1 kmh N 2.2 mph3.5 kmh 30.13 in1020.3 mb 0.00 in0.0 mm 0.00 in0.0 mm 0.00 in0.0 mm
09:45 PM 44.4°F6.9°C 42.5°F5.8°C 93% Calm Calm 3.1 mph5.0 kmh 30.12 in1020.0 mb 0.00 in0.0 mm 0.00 in0.0 mm 0.00 in0.0 mm
10:00 PM 44.1°F6.7°C 42.2°F5.7°C 93% Calm Calm 0.7 mph1.1 kmh 30.14 in1020.7 mb 0.00 in0.0 mm 0.00 in0.0 mm 0.00 in0.0 mm
10:15 PM 43.9°F6.6°C 42.3°F5.7°C 94% Calm Calm 1.6 mph2.6 kmh 30.14 in1020.7 mb 0.00 in0.0 mm 0.00 in0.0 mm 0.00 in0.0 mm
10:30 PM 43.5°F6.4°C 41.9°F5.5°C 94% Calm Calm 0.7 mph1.1 kmh 30.14 in1020.7 mb 0.00 in0.0 mm 0.00 in0.0 mm 0.00 in0.0 mm
10:45 PM 43.0°F6.1°C 41.6°F5.3°C 95% Calm Calm 0.7 mph1.1 kmh 30.13 in1020.3 mb 0.00 in0.0 mm 0.00 in0.0 mm 0.00 in0.0 mm
11:00 PM 42.6°F5.9°C 41.3°F5.2°C 95% Calm Calm 0.7 mph1.1 kmh 30.13 in1020.3 mb 0.00 in0.0 mm 0.00 in0.0 mm 0.00 in0.0 mm
11:15 PM 42.6°F5.9°C 41.6°F5.3°C 96% 0.7 mph N1.1 kmh N 3.1 mph5.0 kmh 30.14 in1020.7 mb 0.00 in0.0 mm 0.00 in0.0 mm 0.00 in0.0 mm
11:30 PM 42.4°F5.8°C 41.7°F5.4°C 97% 0.7 mph N1.1 kmh N 1.6 mph2.6 kmh 30.15 in1021.0 mb 0.00 in0.0 mm 0.00 in0.0 mm 0.00 in0.0 mm
11:45 PM 42.3°F5.7°C 41.5°F5.3°C 97% 0.7 mph N1.1 kmh N 1.6 mph2.6 kmh 30.16 in1021.3 mb 0.00 in0.0 mm 0.00 in0.0 mm 0.00 in0.0 mm